Prince Rupert Airport
CYPR : now visible

Airfield :











YOU CAN JOIN US ON...

 
LOGIN :

Register | Disclaimer

   EN    FR    IT 

 









Legend :    VFR   Marginal VFR   IFR   Intensive IFR   Very Intensive IFR
Visi :
Ceiling :
>= 8 km
>= 3000ft
5 to 8 km
1000 to 3000 ft
1500m to 5 km
500 to 1000 ft
800 to 1500m
200 to 500 ft
< 800m
< 200 ft
Symbols :   Thunderstorms  Fog  Heavy snow  Heavy precipitations  Wind > 20 kt







- Airport Elevation : 116 ft
- IATA code : YPR


CYPR - Prince Rupert

CURRENT METAR :
  • 170800Z AUTO 08003KT 070V150 9SM -RA BKN045 OVC055 11/10 A2945 RMK SLP976

EXPIRED METARs :
  • 170700Z AUTO 09005KT 9SM -RA BKN055 OVC066 11/10 A2945 RMK SLP974 DENSITY ALT 200FT
  • 170636Z AUTO 10005KT 6SM -RA BR SCT040 OVC055 11/10 A2946 RMK SLP978 DENSITY ALT 200FT
  • 170600Z AUTO 15004KT 080V180 5SM RA BR BKN044 OVC050 11/10 A2947 RMK PCPN 1.5MM PAST HR SLP981
  • 170557Z AUTO VRB02KT 5SM -RA BR BKN042 OVC050 11/10 A2947 RMK SLP980
  • 170523Z AUTO 09003KT 6SM RA BR BKN055 OVC069 11/10 A2946 RMK SLP979

TAF TAF CYPR
Valid from the 17 at 07:00 until the 17 at 19:00 UTC


170639Z 1707/1719 VRB03KT P6SM -RA SCT020 OVC040
TEMPO 1707/1715 5SM -RA BR OVC020
BECMG 1707/1709 10008KT
FM171500 10005KT P6SM BKN040 OVC120 RMK FCST BASED ON AUTO OBS. NXT FCST BY 171300Z
No reported NOTAMs for that airfield.



MET'MAP, your aeronautical weather chart ! - Copyright ORBIFLY December 2007 - Disclaimer

ORBIFLY MET'MAP TEAM :

Programming & Development : Alexandra Zaïnal
Concept & Development : Baudouin d'Aumeries
Co-Development & Prog : Marc-Olivier Méhu
Technical & hardware support : Manuel Goepfert

Contact : metmap@orbifly.com




SOURCES & CREDITS :

   NOAA       Earth
Advisory